F/V Mare Liberum — FVHW — position and weather

sailwx.info

Track history (hours):
 
Tides and Currents Weather Stations Pressure Air Temp Water Temp Dewpoint Dewpoint Depression Visibility Wind Speed Wind Dir Waves Ship Positions

F/V Mare Liberum

Last reported at 2014-Dec-21 13:20 UTC. Time now 2014-Dec-22 07:47 UTC.
Position N 47°01' W 002°18'.

Length 21 m.

Type: Fishing. MMSI: 227426000.

Date/timePositionNaut miles runAvg speedWind from/ knotsBaromVisibWave heightAir tempDewpointWater temp
2014-Dec-21 13:20N 47°01' W 002°18'30 0.6
2014-Dec-19 10:13N 46°32' W 002°10'6 8.7
2014-Dec-19 09:33N 46°26' W 002°07'9 1.5
2014-Dec-19 03:30N 46°18' W 002°03'3 2.2
2014-Dec-19 02:08N 46°15' W 002°03'2 2.8
2014-Dec-19 01:20N 46°17' W 002°03'  
2014-Dec-14 23:17N 46°29' W 002°13'6 7.9
2014-Dec-14 22:30N 46°35' W 002°14'4 0.5
2014-Dec-14 14:24N 46°32' W 002°11'8 9.9
2014-Dec-14 13:33N 46°24' W 002°07'8 6.7
2014-Dec-14 12:22N 46°17' W 002°04'5 0.1
2014-Dec-12 19:05N 46°16' W 002°11'1 0.0
2014-Dec-11 14:21N 46°16' W 002°10'  
Track history (hours):
 
Tides and Currents Weather Stations Pressure Air Temp Water Temp Dewpoint Dewpoint Depression Visibility Wind Speed Wind Dir Waves Ship Positions

F/V Mare Liberum

Last reported at 2014-Dec-21 13:20 UTC. Time now 2014-Dec-22 07:47 UTC.
Position N 47°01' W 002°18'.

Length 21 m.

Type: Fishing. MMSI: 227426000.

Date/timePositionNaut miles runAvg speedWind from/ knotsBaromVisibWave heightAir tempDewpointWater temp
2014-Dec-21 13:20N 47°01' W 002°18'30 0.6
2014-Dec-19 10:13N 46°32' W 002°10'6 8.7
2014-Dec-19 09:33N 46°26' W 002°07'9 1.5
2014-Dec-19 03:30N 46°18' W 002°03'3 2.2
2014-Dec-19 02:08N 46°15' W 002°03'2 2.8
2014-Dec-19 01:20N 46°17' W 002°03'  
2014-Dec-14 23:17N 46°29' W 002°13'6 7.9
2014-Dec-14 22:30N 46°35' W 002°14'4 0.5
2014-Dec-14 14:24N 46°32' W 002°11'8 9.9
2014-Dec-14 13:33N 46°24' W 002°07'8 6.7
2014-Dec-14 12:22N 46°17' W 002°04'5 0.1
2014-Dec-12 19:05N 46°16' W 002°11'1 0.0
2014-Dec-11 14:21N 46°16' W 002°10'  

Dump ship's entire track history